createdAt,value
2022-11-23T00:00:41.853Z,98979.75
2022-11-23T00:03:15.510Z,98983.91
2022-11-23T00:05:43.226Z,98976.88
2022-11-23T00:08:12.328Z,98974.31
2022-11-23T00:10:40.006Z,98981.34
2022-11-23T00:13:07.689Z,98974.13
2022-11-23T00:15:35.600Z,98978.44
2022-11-23T00:18:03.597Z,98972.13
2022-11-23T00:20:31.550Z,98957.63
2022-11-23T00:22:59.214Z,98957.78
2022-11-23T00:25:28.341Z,98966.47
2022-11-23T00:27:56.059Z,98970.59
2022-11-23T00:30:24.268Z,98965.19
2022-11-23T00:32:53.569Z,98966.44
2022-11-23T00:35:21.321Z,98969.59
2022-11-23T00:37:48.987Z,98968.69
2022-11-23T00:40:17.583Z,98970.09
2022-11-23T00:42:47.057Z,98968.97
2022-11-23T00:45:14.725Z,98969.66
2022-11-23T00:47:42.374Z,98959.28
2022-11-23T00:50:10.782Z,98960.69
2022-11-23T00:52:38.532Z,98968.50
2022-11-23T00:55:07.237Z,98965.16
2022-11-23T00:57:36.012Z,98963.47
2022-11-23T01:00:06.581Z,98973.31
2022-11-23T01:02:35.678Z,98978.25
2022-11-23T01:05:03.847Z,98983.69
2022-11-23T01:07:31.701Z,98978.44
2022-11-23T01:09:59.471Z,98981.81
2022-11-23T01:12:29.088Z,98987.97
2022-11-23T01:14:56.802Z,98987.72
2022-11-23T01:17:25.925Z,98992.06
2022-11-23T01:19:53.572Z,98994.56
2022-11-23T01:22:21.412Z,98993.63
2022-11-23T01:24:51.797Z,98993.06
2022-11-23T01:27:19.548Z,98989.50
2022-11-23T01:29:47.254Z,98994.72
2022-11-23T01:32:14.916Z,98997.25
2022-11-23T01:34:43.958Z,98992.00
2022-11-23T01:37:11.976Z,98994.41
2022-11-23T01:39:39.684Z,98989.88
2022-11-23T01:42:08.692Z,98988.34
2022-11-23T01:44:38.553Z,98987.63
2022-11-23T01:47:08.175Z,98990.06
2022-11-23T01:49:40.474Z,98992.81
2022-11-23T01:52:12.730Z,98988.22
2022-11-23T01:54:45.606Z,98999.50
2022-11-23T01:57:18.889Z,98996.03
2022-11-23T01:59:48.077Z,98992.66
2022-11-23T02:02:16.732Z,98989.38
2022-11-23T02:04:47.093Z,98997.13
2022-11-23T02:07:18.141Z,98997.75
2022-11-23T02:09:47.110Z,99000.88
2022-11-23T02:12:15.753Z,99001.03
2022-11-23T02:14:45.777Z,99006.25
2022-11-23T02:17:14.049Z,99005.09
2022-11-23T02:19:50.164Z,99007.03
2022-11-23T02:22:27.888Z,99007.25
2022-11-23T02:24:56.693Z,99006.41
2022-11-23T02:27:28.461Z,99004.81
2022-11-23T02:30:00.712Z,99007.31
2022-11-23T02:32:29.221Z,99011.56
2022-11-23T02:34:57.285Z,98998.81
2022-11-23T02:37:25.085Z,99003.06
2022-11-23T02:39:55.386Z,99000.56
2022-11-23T02:42:24.375Z,98990.34
2022-11-23T02:45:05.553Z,98988.88
2022-11-23T02:47:33.315Z,98993.06
2022-11-23T02:50:02.046Z,98986.03
2022-11-23T02:52:29.804Z,98996.41
2022-11-23T02:54:58.090Z,98992.91
2022-11-23T02:57:25.712Z,98994.50
2022-11-23T02:59:54.707Z,98987.59
2022-11-23T03:02:22.440Z,98989.19
2022-11-23T03:04:50.544Z,98991.56
2022-11-23T03:07:21.738Z,98983.97
2022-11-23T03:09:50.939Z,98990.72
2022-11-23T03:12:20.823Z,98988.13
2022-11-23T03:14:48.601Z,98992.47
2022-11-23T03:17:20.224Z,98991.56
2022-11-23T03:19:47.905Z,98989.66
2022-11-23T03:22:15.812Z,98991.41
2022-11-23T03:24:43.580Z,98998.16
2022-11-23T03:27:16.665Z,98997.13
2022-11-23T03:29:45.319Z,98998.88
2022-11-23T03:32:19.841Z,98997.97
2022-11-23T03:34:51.319Z,98997.25
2022-11-23T03:37:21.641Z,98993.94
2022-11-23T03:39:49.732Z,98996.50
2022-11-23T03:42:23.229Z,98999.09
2022-11-23T03:44:51.704Z,98993.94
2022-11-23T03:47:21.319Z,98991.25
2022-11-23T03:49:49.416Z,98988.78
2022-11-23T03:52:17.115Z,98993.72
2022-11-23T03:54:46.979Z,99001.69
2022-11-23T03:57:15.131Z,98999.94
2022-11-23T03:59:42.795Z,99006.84
2022-11-23T04:02:11.136Z,99004.25
2022-11-23T04:04:48.984Z,99002.56
2022-11-23T04:07:35.175Z,98999.09
2022-11-23T04:10:06.816Z,99002.50
2022-11-23T04:12:53.433Z,98999.00
2022-11-23T04:15:21.660Z,98998.16
2022-11-23T04:17:49.852Z,99006.41
2022-11-23T04:20:19.348Z,98997.97
2022-11-23T04:22:47.103Z,98996.22
2022-11-23T04:25:15.527Z,98996.22
2022-11-23T04:27:43.423Z,98994.47
2022-11-23T04:30:12.201Z,98996.16
2022-11-23T04:32:39.969Z,98989.94
2022-11-23T04:35:08.301Z,98990.09
2022-11-23T04:37:38.576Z,98991.75
2022-11-23T04:40:07.637Z,98992.69
2022-11-23T04:42:47.136Z,98990.00
2022-11-23T04:45:15.501Z,98996.06
2022-11-23T04:47:44.654Z,98998.66
2022-11-23T04:50:14.856Z,99000.34
2022-11-23T04:52:47.710Z,98995.59
2022-11-23T04:55:20.414Z,98988.75
2022-11-23T04:57:57.354Z,98991.19
2022-11-23T05:00:28.905Z,98988.66
2022-11-23T05:03:00.726Z,98987.34
2022-11-23T05:05:31.940Z,98992.91
2022-11-23T05:08:01.598Z,98988.75
2022-11-23T05:10:42.034Z,99005.97
2022-11-23T05:13:09.764Z,99002.50
2022-11-23T05:15:37.831Z,98994.91
2022-11-23T05:18:07.937Z,98991.38
2022-11-23T05:20:37.645Z,98994.91
2022-11-23T05:23:07.288Z,99000.06
2022-11-23T05:25:36.853Z,98990.28
2022-11-23T05:28:30.174Z,98998.81
2022-11-23T05:30:54.617Z,99006.97
2022-11-23T05:33:22.506Z,98995.50
2022-11-23T05:35:51.176Z,98996.50
2022-11-23T05:38:28.730Z,99003.59
2022-11-23T05:40:59.960Z,99003.59
2022-11-23T05:43:28.254Z,99002.72
2022-11-23T05:45:59.279Z,98993.16
2022-11-23T05:48:27.738Z,99006.81
2022-11-23T05:51:04.857Z,99005.97
2022-11-23T05:53:38.067Z,99018.88
2022-11-23T05:56:15.682Z,99009.47
2022-11-23T05:58:57.119Z,99005.22
2022-11-23T06:01:25.013Z,99009.69
2022-11-23T06:03:55.869Z,99012.28
2022-11-23T06:06:24.572Z,99013.09
2022-11-23T06:08:53.562Z,99005.34
2022-11-23T06:11:21.326Z,99009.75
2022-11-23T06:13:49.344Z,99008.06
2022-11-23T06:16:18.453Z,99019.19
2022-11-23T06:18:59.370Z,99012.28
2022-11-23T06:21:27.016Z,99007.03
2022-11-23T06:23:56.064Z,99007.88
2022-11-23T06:26:24.309Z,99005.28
2022-11-23T06:28:52.478Z,99011.22
2022-11-23T06:31:20.250Z,99006.19
2022-11-23T06:33:48.041Z,99004.38
2022-11-23T06:36:16.530Z,99003.41
2022-11-23T06:38:48.955Z,99000.97
2022-11-23T06:41:30.929Z,99001.59
2022-11-23T06:44:00.346Z,98999.91
2022-11-23T06:46:38.722Z,99004.38
2022-11-23T06:49:06.967Z,99003.53
2022-11-23T06:51:34.846Z,99009.34
2022-11-23T06:54:02.587Z,99010.19
2022-11-23T06:56:33.521Z,99015.34
2022-11-23T06:59:01.246Z,99024.88
2022-11-23T07:01:29.237Z,99030.75
2022-11-23T07:04:02.778Z,99036.69
2022-11-23T07:06:34.397Z,99030.59
2022-11-23T07:09:09.363Z,99037.59
2022-11-23T07:11:56.479Z,99036.69
2022-11-23T07:14:24.263Z,99028.94
2022-11-23T07:16:52.950Z,99038.50
2022-11-23T07:19:21.781Z,99036.81
2022-11-23T07:21:51.200Z,99037.75
2022-11-23T07:24:19.025Z,99038.78
2022-11-23T07:26:46.782Z,99042.31
2022-11-23T07:29:16.651Z,99039.94
2022-11-23T07:31:44.535Z,99048.75
2022-11-23T07:34:12.994Z,99047.78
2022-11-23T07:36:40.791Z,99051.22
2022-11-23T07:39:08.826Z,99054.53
2022-11-23T07:41:37.755Z,99060.41
2022-11-23T07:44:09.170Z,99055.13
2022-11-23T07:46:38.220Z,99059.34
2022-11-23T07:49:06.034Z,99057.41
2022-11-23T07:51:34.164Z,99058.25
2022-11-23T07:54:01.841Z,99054.81
2022-11-23T07:56:29.607Z,99052.09
2022-11-23T07:58:57.803Z,99057.63
2022-11-23T08:01:26.105Z,99063.28
2022-11-23T08:03:55.127Z,99058.81
2022-11-23T08:06:29.201Z,99053.53
2022-11-23T08:08:56.854Z,99065.63
2022-11-23T08:11:24.541Z,99064.72
2022-11-23T08:13:52.370Z,99058.66
2022-11-23T08:16:20.343Z,99057.44
2022-11-23T08:18:50.611Z,99059.44
2022-11-23T08:21:19.662Z,99057.19
2022-11-23T08:23:47.537Z,99048.91
2022-11-23T08:26:15.338Z,99050.06
2022-11-23T08:28:43.080Z,99055.84
2022-11-23T08:31:12.343Z,99062.00
2022-11-23T08:33:40.754Z,99062.97
2022-11-23T08:36:10.109Z,99066.66
2022-11-23T08:38:39.140Z,99070.00
2022-11-23T08:41:07.033Z,99071.44
2022-11-23T08:43:35.632Z,99065.81
2022-11-23T08:46:10.867Z,99067.28
2022-11-23T08:48:39.255Z,99065.91
2022-11-23T08:51:07.732Z,99066.53
2022-11-23T08:53:35.702Z,99064.69
2022-11-23T08:56:07.593Z,99066.44
2022-11-23T08:58:36.667Z,99058.44
2022-11-23T09:01:09.135Z,99066.13
2022-11-23T09:03:37.008Z,99059.00
2022-11-23T09:06:04.944Z,99059.69
2022-11-23T09:08:32.861Z,99064.28
2022-11-23T09:11:01.250Z,99059.81
2022-11-23T09:13:30.832Z,99059.75
2022-11-23T09:15:59.742Z,99067.72
2022-11-23T09:18:27.898Z,99065.03
2022-11-23T09:20:55.591Z,99063.97
2022-11-23T09:23:23.715Z,99056.91
2022-11-23T09:25:51.387Z,99063.09
2022-11-23T09:28:19.600Z,99060.94
2022-11-23T09:30:49.036Z,99060.53
2022-11-23T09:33:16.718Z,99057.94
2022-11-23T09:35:44.463Z,99060.63
2022-11-23T09:38:12.158Z,99056.97
2022-11-23T09:40:41.818Z,99064.47
2022-11-23T09:43:28.745Z,99060.38
2022-11-23T09:46:04.266Z,99060.91
2022-11-23T09:48:44.719Z,99064.38
2022-11-23T09:51:17.172Z,99058.34
2022-11-23T09:53:50.121Z,99065.63
2022-11-23T09:56:20.577Z,99060.03
2022-11-23T09:58:54.452Z,99058.84
2022-11-23T10:01:23.725Z,99066.28
2022-11-23T10:03:52.222Z,99068.38
2022-11-23T10:06:21.768Z,99051.81
2022-11-23T10:09:00.842Z,99056.25
2022-11-23T10:12:05.773Z,99056.00
2022-11-23T10:14:49.546Z,99042.09
2022-11-23T10:17:30.450Z,99043.50
2022-11-23T10:20:14.228Z,99040.72
2022-11-23T10:22:49.093Z,99044.44
2022-11-23T10:25:20.349Z,99039.63
2022-11-23T10:27:50.349Z,99039.44
2022-11-23T10:30:20.485Z,99037.19
2022-11-23T10:32:55.113Z,99037.44
2022-11-23T10:35:29.075Z,99031.38
2022-11-23T10:38:15.060Z,99030.44
2022-11-23T10:40:53.607Z,99021.38
2022-11-23T10:43:26.214Z,99022.69
2022-11-23T10:46:24.852Z,99028.34
2022-11-23T10:48:54.568Z,99025.38
2022-11-23T10:51:28.822Z,99018.06
2022-11-23T10:54:04.938Z,99020.28
2022-11-23T10:56:34.035Z,99010.47
2022-11-23T10:59:01.960Z,99011.94
2022-11-23T11:01:30.663Z,99005.09
2022-11-23T11:04:04.464Z,99017.41
2022-11-23T11:06:36.040Z,99001.19
2022-11-23T11:09:10.810Z,99006.56
2022-11-23T11:11:47.768Z,98997.97
2022-11-23T11:14:17.928Z,99001.94
2022-11-23T11:16:50.194Z,98995.84
2022-11-23T11:19:28.354Z,98989.25
2022-11-23T11:21:56.790Z,98978.44
2022-11-23T11:24:32.656Z,98983.41
2022-11-23T11:27:03.696Z,98977.91
2022-11-23T11:29:39.167Z,98979.59
2022-11-23T11:32:13.440Z,98973.03
2022-11-23T11:34:47.559Z,98969.28
2022-11-23T11:37:23.467Z,98954.28
2022-11-23T11:39:56.910Z,98955.13
2022-11-23T11:42:34.300Z,98948.25
2022-11-23T11:45:06.228Z,98948.06
2022-11-23T11:47:38.713Z,98949.19
2022-11-23T11:50:20.377Z,98940.09
2022-11-23T11:52:52.567Z,98937.09
2022-11-23T11:55:25.077Z,98935.84
2022-11-23T11:57:57.296Z,98941.06
2022-11-23T12:00:25.875Z,98931.91
2022-11-23T12:03:03.192Z,98936.75
2022-11-23T12:05:41.037Z,98930.97
2022-11-23T12:08:14.043Z,98924.97
2022-11-23T12:10:46.093Z,98926.13
2022-11-23T12:13:16.902Z,98926.97
2022-11-23T12:15:50.161Z,98927.34
2022-11-23T12:18:56.593Z,98916.47
2022-11-23T12:21:40.491Z,98916.84
2022-11-23T12:24:18.606Z,98910.72
2022-11-23T12:26:53.152Z,98916.97
2022-11-23T12:29:46.707Z,98918.25
2022-11-23T12:32:24.478Z,98917.13
2022-11-23T12:35:11.816Z,98913.38
2022-11-23T12:37:56.571Z,98907.34
2022-11-23T12:40:34.146Z,98904.25
2022-11-23T12:43:04.914Z,98907.56
2022-11-23T12:45:53.711Z,98903.00
2022-11-23T12:48:37.911Z,98912.78
2022-11-23T12:51:17.549Z,98904.50
2022-11-23T12:53:55.739Z,98897.84
2022-11-23T12:56:42.957Z,98903.41
2022-11-23T12:59:12.437Z,98901.03
2022-11-23T13:01:45.827Z,98895.84
2022-11-23T13:04:43.600Z,98891.66
2022-11-23T13:07:51.122Z,98891.28
2022-11-23T13:10:36.654Z,98895.34
2022-11-23T13:13:25.717Z,98887.78
2022-11-23T13:16:23.112Z,98886.97
2022-11-23T13:19:07.566Z,98874.72
2022-11-23T13:21:38.876Z,98883.34
2022-11-23T13:24:26.005Z,98876.59
2022-11-23T13:27:31.455Z,98875.34
2022-11-23T13:30:09.690Z,98872.53
2022-11-23T13:32:54.115Z,98866.03
2022-11-23T13:35:50.037Z,98871.47
2022-11-23T13:38:26.788Z,98855.84
2022-11-23T13:40:54.886Z,98858.78
2022-11-23T13:43:27.306Z,98851.34
2022-11-23T13:46:24.866Z,98851.19
2022-11-23T13:48:57.089Z,98848.50
2022-11-23T13:51:28.133Z,98849.16
2022-11-23T13:54:02.937Z,98845.16
2022-11-23T13:56:34.788Z,98839.44
2022-11-23T13:59:30.209Z,98826.81
2022-11-23T14:02:27.902Z,98807.06
2022-11-23T14:05:34.189Z,98815.06
2022-11-23T14:08:04.323Z,98802.66
2022-11-23T14:10:33.191Z,98797.97
2022-11-23T14:13:06.049Z,98792.44
2022-11-23T14:15:37.205Z,98795.06
2022-11-23T14:18:31.547Z,98790.91
2022-11-23T14:21:13.846Z,98778.31
2022-11-23T14:24:15.588Z,98791.53
2022-11-23T14:26:52.948Z,98789.59
2022-11-23T14:29:57.148Z,98785.81
2022-11-23T14:32:41.324Z,98779.97
2022-11-23T14:35:24.940Z,98786.03
2022-11-23T14:38:10.394Z,98804.84
2022-11-23T14:40:52.549Z,98798.16
2022-11-23T14:43:20.958Z,98798.81
2022-11-23T14:45:49.525Z,98796.88
2022-11-23T14:48:24.968Z,98806.03
2022-11-23T14:51:01.285Z,98802.13
2022-11-23T14:53:31.975Z,98798.22
2022-11-23T14:56:00.268Z,98796.72
2022-11-23T14:58:31.506Z,98794.69
2022-11-23T15:01:01.364Z,98791.53
2022-11-23T15:06:25.608Z,98801.22
2022-11-23T15:09:03.782Z,98804.06
2022-11-23T15:11:35.357Z,98806.91
2022-11-23T15:14:03.408Z,98805.50
2022-11-23T15:16:40.107Z,98807.44
2022-11-23T15:19:19.027Z,98807.78
2022-11-23T15:21:49.480Z,98814.25
2022-11-23T15:24:25.580Z,98813.56
2022-11-23T15:26:54.217Z,98813.66
2022-11-23T15:29:36.949Z,98830.03
2022-11-23T15:32:30.573Z,98822.09
2022-11-23T15:35:02.523Z,98839.19
2022-11-23T15:37:32.362Z,98829.41
2022-11-23T15:40:01.023Z,98827.41
2022-11-23T15:42:29.861Z,98823.63
2022-11-23T15:44:58.858Z,98827.69
2022-11-23T15:47:30.794Z,98831.91
2022-11-23T15:50:02.008Z,98825.81
2022-11-23T15:52:35.822Z,98823.03
2022-11-23T15:55:09.688Z,98825.25
2022-11-23T15:57:39.329Z,98824.03
2022-11-23T16:00:09.344Z,98826.19
2022-11-23T16:02:40.179Z,98827.38
2022-11-23T16:05:14.561Z,98837.19
2022-11-23T16:07:54.814Z,98842.38
2022-11-23T16:10:24.417Z,98838.84
2022-11-23T16:12:54.969Z,98845.03
2022-11-23T16:15:41.580Z,98853.00
2022-11-23T16:18:21.816Z,98854.75
2022-11-23T16:20:52.268Z,98855.41
2022-11-23T16:23:24.746Z,98864.00
2022-11-23T16:26:00.042Z,98867.44
2022-11-23T16:28:30.449Z,98869.28
2022-11-23T16:30:58.553Z,98882.41
2022-11-23T16:33:26.807Z,98886.94
2022-11-23T16:35:55.567Z,98905.50
2022-11-23T16:38:25.473Z,98912.00
2022-11-23T16:40:53.309Z,98917.88
2022-11-23T16:43:22.255Z,98926.72
2022-11-23T16:45:52.533Z,98921.97
2022-11-23T16:48:43.007Z,98915.03
2022-11-23T16:51:14.439Z,98924.63
2022-11-23T16:54:16.185Z,98942.19
2022-11-23T16:56:33.268Z,98941.75
2022-11-23T16:59:01.013Z,98948.94
2022-11-23T17:01:31.337Z,98957.00
2022-11-23T17:03:59.213Z,98956.75
2022-11-23T17:06:26.969Z,98957.75
2022-11-23T17:09:03.107Z,98960.66
2022-11-23T17:11:31.091Z,98964.31
2022-11-23T17:13:59.802Z,98965.31
2022-11-23T17:16:27.878Z,98982.75
2022-11-23T17:18:55.666Z,98981.06
2022-11-23T17:21:23.529Z,98986.41
2022-11-23T17:23:51.952Z,98990.91
2022-11-23T17:26:31.934Z,98985.78
2022-11-23T17:29:01.899Z,98991.81
2022-11-23T17:31:29.796Z,98993.63
2022-11-23T17:33:57.679Z,98989.28
2022-11-23T17:36:26.111Z,98990.38
2022-11-23T17:38:54.844Z,98993.88
2022-11-23T17:41:22.969Z,98992.19
2022-11-23T17:43:52.883Z,98987.94
2022-11-23T17:46:23.727Z,99000.19
2022-11-23T17:48:55.202Z,99002.94
2022-11-23T17:51:23.255Z,98999.56
2022-11-23T17:53:52.206Z,99001.31
2022-11-23T17:56:22.458Z,98999.06
2022-11-23T17:58:53.090Z,99003.47
2022-11-23T18:01:22.609Z,98999.28
2022-11-23T18:03:50.634Z,98998.22
2022-11-23T18:06:21.401Z,98992.44
2022-11-23T18:08:51.675Z,98989.78
2022-11-23T18:11:20.341Z,98992.44
2022-11-23T18:13:50.638Z,98994.13
2022-11-23T18:16:20.639Z,98991.59
2022-11-23T18:18:48.554Z,98991.59
2022-11-23T18:21:17.565Z,98988.88
2022-11-23T18:23:45.710Z,98998.28
2022-11-23T18:26:21.915Z,98998.53
2022-11-23T18:28:50.680Z,99000.06
2022-11-23T18:31:20.442Z,99005.13
2022-11-23T18:33:48.629Z,99012.72
2022-11-23T18:36:16.751Z,99012.22
2022-11-23T18:38:45.731Z,99019.13
2022-11-23T18:41:14.333Z,99024.13
2022-11-23T18:43:42.024Z,99018.06
2022-11-23T18:46:11.511Z,99024.22
2022-11-23T18:48:41.185Z,99030.94
2022-11-23T18:51:11.765Z,99026.50
2022-11-23T18:53:40.905Z,99035.94
2022-11-23T18:56:10.268Z,99036.94
2022-11-23T18:58:40.150Z,99043.84
2022-11-23T19:01:12.231Z,99047.28
2022-11-23T19:03:44.407Z,99044.69
2022-11-23T19:06:14.359Z,99049.88
2022-11-23T19:08:43.948Z,99053.28
2022-11-23T19:11:17.973Z,99064.38
2022-11-23T19:13:48.819Z,99063.53
2022-11-23T19:16:18.357Z,99076.41
2022-11-23T19:18:48.736Z,99077.16
2022-11-23T19:21:18.168Z,99080.63
2022-11-23T19:23:50.441Z,99086.59
2022-11-23T19:26:18.549Z,99087.59
2022-11-23T19:28:46.641Z,99086.66
2022-11-23T19:31:16.702Z,99095.25
2022-11-23T19:33:45.825Z,99103.16
2022-11-23T19:36:17.870Z,99112.13
2022-11-23T19:38:45.917Z,99132.66
2022-11-23T19:41:14.481Z,99125.81
2022-11-23T19:43:42.518Z,99126.97
2022-11-23T19:46:13.295Z,99138.41
2022-11-23T19:48:42.148Z,99148.97
2022-11-23T19:51:13.612Z,99157.50
2022-11-23T19:53:46.215Z,99158.63
2022-11-23T19:56:16.251Z,99169.00
2022-11-23T19:58:45.430Z,99162.25
2022-11-23T20:01:15.022Z,99177.13
2022-11-23T20:03:46.020Z,99181.88
2022-11-23T20:06:16.260Z,99192.78
2022-11-23T20:08:46.117Z,99203.66
2022-11-23T20:11:16.493Z,99209.50
2022-11-23T20:13:44.769Z,99215.25
2022-11-23T20:16:14.880Z,99226.94
2022-11-23T20:18:42.940Z,99223.00
2022-11-23T20:21:12.771Z,99238.78
2022-11-23T20:23:41.206Z,99240.03
2022-11-23T20:26:14.442Z,99247.59
2022-11-23T20:28:42.567Z,99244.88
2022-11-23T20:31:20.067Z,99248.50
2022-11-23T20:33:50.487Z,99256.59
2022-11-23T20:36:20.736Z,99257.50
2022-11-23T20:38:49.234Z,99261.59
2022-11-23T20:41:20.029Z,99262.22
2022-11-23T20:43:49.805Z,99256.84
2022-11-23T20:46:38.112Z,99266.19
2022-11-23T20:49:06.059Z,99272.91
2022-11-23T20:51:33.829Z,99285.06
2022-11-23T20:54:01.541Z,99288.53
2022-11-23T20:56:32.070Z,99298.19
2022-11-23T20:59:00.886Z,99289.50
2022-11-23T21:01:29.469Z,99301.94
2022-11-23T21:03:59.228Z,99303.63
2022-11-23T21:06:28.372Z,99306.78
2022-11-23T21:08:56.320Z,99306.28
2022-11-23T21:11:43.798Z,99315.97
2022-11-23T21:14:18.246Z,99313.22
2022-11-23T21:16:52.708Z,99316.91
2022-11-23T21:19:21.816Z,99318.28
2022-11-23T21:21:49.676Z,99316.75
2022-11-23T21:24:17.629Z,99318.22
2022-11-23T21:26:46.126Z,99310.41
2022-11-23T21:29:16.237Z,99320.94
2022-11-23T21:31:45.506Z,99325.78
2022-11-23T21:34:19.113Z,99330.63
2022-11-23T21:36:46.990Z,99334.13
2022-11-23T21:39:15.374Z,99347.41
2022-11-23T21:41:43.247Z,99356.88
2022-11-23T21:44:11.777Z,99366.53
2022-11-23T21:46:42.044Z,99375.09
2022-11-23T21:49:10.795Z,99386.78
2022-11-23T21:51:39.464Z,99385.81
2022-11-23T21:54:09.895Z,99381.69
2022-11-23T21:56:37.890Z,99375.97
2022-11-23T21:59:05.971Z,99376.16
2022-11-23T22:01:35.554Z,99374.81
2022-11-23T22:04:08.678Z,99390.84
2022-11-23T22:06:36.883Z,99380.63
2022-11-23T22:09:06.403Z,99383.28
2022-11-23T22:11:35.801Z,99391.50
2022-11-23T22:14:07.244Z,99387.69
2022-11-23T22:16:36.746Z,99393.34
2022-11-23T22:19:06.852Z,99396.31
2022-11-23T22:21:36.697Z,99396.50
2022-11-23T22:24:05.760Z,99392.59
2022-11-23T22:26:33.953Z,99398.00
2022-11-23T22:29:05.949Z,99402.22
2022-11-23T22:31:35.203Z,99399.19
2022-11-23T22:34:05.524Z,99398.00
2022-11-23T22:36:34.864Z,99402.06
2022-11-23T22:39:05.114Z,99410.69
2022-11-23T22:41:36.331Z,99424.56
2022-11-23T22:44:05.205Z,99426.66
2022-11-23T22:46:33.082Z,99434.16
2022-11-23T22:49:01.804Z,99455.63
2022-11-23T22:51:30.543Z,99461.78
2022-11-23T22:54:01.233Z,99457.09
2022-11-23T22:56:30.910Z,99460.25
2022-11-23T22:58:59.767Z,99465.47
2022-11-23T23:01:30.114Z,99468.28
2022-11-23T23:04:00.502Z,99474.59
2022-11-23T23:06:30.190Z,99474.34
2022-11-23T23:09:01.178Z,99470.88
2022-11-23T23:11:31.353Z,99476.13
2022-11-23T23:13:59.781Z,99476.31
2022-11-23T23:16:28.754Z,99476.97
2022-11-23T23:18:57.683Z,99478.34
2022-11-23T23:21:27.422Z,99478.94
2022-11-23T23:23:57.259Z,99478.72
2022-11-23T23:26:27.196Z,99483.44
2022-11-23T23:28:56.354Z,99473.84
2022-11-23T23:31:25.204Z,99485.19
2022-11-23T23:33:53.806Z,99484.13
2022-11-23T23:36:23.196Z,99485.97
2022-11-23T23:38:51.196Z,99493.44
2022-11-23T23:41:19.458Z,99500.06
2022-11-23T23:43:48.864Z,99494.88
2022-11-23T23:46:17.117Z,99499.06
2022-11-23T23:48:44.902Z,99505.69
2022-11-23T23:51:14.427Z,99501.94
2022-11-23T23:53:42.914Z,99491.25
2022-11-23T23:56:15.001Z,99496.97
2022-11-23T23:58:42.999Z,99494.81
